sensor_id;sensor_type;location;lat;lon;timestamp;P1;P2;P0
51320;PMS5003;38732;49.556;6.286;2022-07-29T00:01:00;9.75;9.75;7.25
51320;PMS5003;38732;49.556;6.286;2022-07-29T00:03:29;11.00;11.00;9.00
51320;PMS5003;38732;49.556;6.286;2022-07-29T00:05:57;9.75;9.75;8.00
51320;PMS5003;38732;49.556;6.286;2022-07-29T00:08:26;15.50;14.00;8.25
51320;PMS5003;38732;49.556;6.286;2022-07-29T00:10:54;9.00;8.00;6.00
51320;PMS5003;38732;49.556;6.286;2022-07-29T00:13:22;12.75;11.00;7.50
51320;PMS5003;38732;49.556;6.286;2022-07-29T00:15:50;8.75;8.75;7.00
51320;PMS5003;38732;49.556;6.286;2022-07-29T00:18:19;12.00;7.75;5.00
51320;PMS5003;38732;49.556;6.286;2022-07-29T00:20:47;9.00;9.00;7.00
51320;PMS5003;38732;49.556;6.286;2022-07-29T00:23:15;8.00;8.00;6.75
51320;PMS5003;38732;49.556;6.286;2022-07-29T00:25:43;9.25;9.25;8.00
51320;PMS5003;38732;49.556;6.286;2022-07-29T00:28:12;10.75;10.75;6.75
51320;PMS5003;38732;49.556;6.286;2022-07-29T00:30:40;10.25;10.25;7.00
51320;PMS5003;38732;49.556;6.286;2022-07-29T00:33:08;11.25;10.25;8.00
51320;PMS5003;38732;49.556;6.286;2022-07-29T00:35:37;10.20;8.60;5.40
51320;PMS5003;38732;49.556;6.286;2022-07-29T00:38:05;10.00;10.00;8.75
51320;PMS5003;38732;49.556;6.286;2022-07-29T00:40:34;11.50;11.00;8.25
51320;PMS5003;38732;49.556;6.286;2022-07-29T00:43:02;8.00;8.00;6.25
51320;PMS5003;38732;49.556;6.286;2022-07-29T00:45:30;10.75;9.75;6.75
51320;PMS5003;38732;49.556;6.286;2022-07-29T00:47:59;9.50;8.25;6.50
51320;PMS5003;38732;49.556;6.286;2022-07-29T00:50:27;13.00;11.00;9.00
51320;PMS5003;38732;49.556;6.286;2022-07-29T00:52:55;11.50;11.50;8.00
51320;PMS5003;38732;49.556;6.286;2022-07-29T00:55:24;9.25;9.25;7.50
51320;PMS5003;38732;49.556;6.286;2022-07-29T00:57:52;10.75;10.75;7.25
51320;PMS5003;38732;49.556;6.286;2022-07-29T01:00:24;12.50;10.00;8.00
51320;PMS5003;38732;49.556;6.286;2022-07-29T01:02:54;13.00;10.00;8.40
51320;PMS5003;38732;49.556;6.286;2022-07-29T01:05:23;13.75;12.50;9.75
51320;PMS5003;38732;49.556;6.286;2022-07-29T01:07:53;11.00;11.00;8.00
51320;PMS5003;38732;49.556;6.286;2022-07-29T01:10:22;11.60;10.40;7.40
51320;PMS5003;38732;49.556;6.286;2022-07-29T01:12:52;9.25;9.25;6.25
51320;PMS5003;38732;49.556;6.286;2022-07-29T01:15:22;11.00;10.00;7.00
51320;PMS5003;38732;49.556;6.286;2022-07-29T01:23:43;9.80;9.80;7.80
51320;PMS5003;38732;49.556;6.286;2022-07-29T01:29:24;12.00;11.80;9.00
51320;PMS5003;38732;49.556;6.286;2022-07-29T01:34:42;11.20;10.80;7.60
51320;PMS5003;38732;49.556;6.286;2022-07-29T01:37:26;11.40;11.40;7.60
51320;PMS5003;38732;49.556;6.286;2022-07-29T01:39:56;12.80;11.20;8.80
51320;PMS5003;38732;49.556;6.286;2022-07-29T01:45:12;14.20;12.60;10.00
51320;PMS5003;38732;49.556;6.286;2022-07-29T01:47:55;13.00;11.80;9.80
51320;PMS5003;38732;49.556;6.286;2022-07-29T01:50:35;16.40;14.20;11.00
51320;PMS5003;38732;49.556;6.286;2022-07-29T01:53:09;11.20;11.20;9.00
51320;PMS5003;38732;49.556;6.286;2022-07-29T01:55:41;13.00;11.00;8.00
51320;PMS5003;38732;49.556;6.286;2022-07-29T01:58:12;11.80;11.80;8.60
51320;PMS5003;38732;49.556;6.286;2022-07-29T02:00:42;14.40;14.40;9.40
51320;PMS5003;38732;49.556;6.286;2022-07-29T02:03:14;13.00;13.00;10.00
51320;PMS5003;38732;49.556;6.286;2022-07-29T02:05:45;16.20;12.00;9.80
51320;PMS5003;38732;49.556;6.286;2022-07-29T02:08:16;14.20;13.80;10.00
51320;PMS5003;38732;49.556;6.286;2022-07-29T02:10:47;15.80;14.60;10.20
51320;PMS5003;38732;49.556;6.286;2022-07-29T02:13:16;13.40;13.40;10.00
51320;PMS5003;38732;49.556;6.286;2022-07-29T02:15:48;12.40;12.00;8.00
51320;PMS5003;38732;49.556;6.286;2022-07-29T02:18:20;14.40;13.40;8.80
51320;PMS5003;38732;49.556;6.286;2022-07-29T02:20:52;13.40;13.40;8.60
51320;PMS5003;38732;49.556;6.286;2022-07-29T02:23:24;13.60;13.60;10.00
51320;PMS5003;38732;49.556;6.286;2022-07-29T02:25:55;14.00;14.00;9.80
51320;PMS5003;38732;49.556;6.286;2022-07-29T02:28:26;14.20;12.20;9.80
51320;PMS5003;38732;49.556;6.286;2022-07-29T02:30:58;11.40;11.20;8.00
51320;PMS5003;38732;49.556;6.286;2022-07-29T02:33:29;14.40;13.60;9.00
51320;PMS5003;38732;49.556;6.286;2022-07-29T02:35:59;17.40;16.40;12.00
51320;PMS5003;38732;49.556;6.286;2022-07-29T02:38:29;11.00;11.00;9.00
51320;PMS5003;38732;49.556;6.286;2022-07-29T02:41:03;13.60;13.00;9.40
51320;PMS5003;38732;49.556;6.286;2022-07-29T02:43:36;15.60;14.20;11.80
51320;PMS5003;38732;49.556;6.286;2022-07-29T02:46:06;13.50;12.75;8.25
51320;PMS5003;38732;49.556;6.286;2022-07-29T02:48:41;12.80;12.80;8.20
51320;PMS5003;38732;49.556;6.286;2022-07-29T02:51:20;14.00;13.00;9.80
51320;PMS5003;38732;49.556;6.286;2022-07-29T02:53:56;13.00;13.00;9.40
51320;PMS5003;38732;49.556;6.286;2022-07-29T02:56:29;17.40;16.00;11.40
51320;PMS5003;38732;49.556;6.286;2022-07-29T02:59:03;13.00;12.40;9.40
51320;PMS5003;38732;49.556;6.286;2022-07-29T03:01:34;15.20;13.20;8.80
51320;PMS5003;38732;49.556;6.286;2022-07-29T03:04:03;14.80;13.60;9.60
51320;PMS5003;38732;49.556;6.286;2022-07-29T03:06:32;13.00;11.60;7.60
51320;PMS5003;38732;49.556;6.286;2022-07-29T03:09:02;13.00;13.00;10.00
51320;PMS5003;38732;49.556;6.286;2022-07-29T03:11:30;12.25;10.25;6.50
51320;PMS5003;38732;49.556;6.286;2022-07-29T03:13:59;14.75;13.25;10.00
51320;PMS5003;38732;49.556;6.286;2022-07-29T03:16:28;13.20;13.00;11.00
51320;PMS5003;38732;49.556;6.286;2022-07-29T03:18:57;17.00;15.50;11.00
51320;PMS5003;38732;49.556;6.286;2022-07-29T03:21:26;16.00;14.20;10.60
51320;PMS5003;38732;49.556;6.286;2022-07-29T03:23:54;15.25;14.25;10.25
51320;PMS5003;38732;49.556;6.286;2022-07-29T03:26:22;11.50;11.50;10.00
51320;PMS5003;38732;49.556;6.286;2022-07-29T03:28:51;11.50;11.50;9.00
51320;PMS5003;38732;49.556;6.286;2022-07-29T03:31:19;11.75;11.75;8.00
51320;PMS5003;38732;49.556;6.286;2022-07-29T03:33:47;17.50;15.75;11.00
51320;PMS5003;38732;49.556;6.286;2022-07-29T03:36:15;14.25;13.00;9.75
51320;PMS5003;38732;49.556;6.286;2022-07-29T03:38:44;12.00;12.00;9.50
51320;PMS5003;38732;49.556;6.286;2022-07-29T03:41:15;13.80;13.80;10.80
51320;PMS5003;38732;49.556;6.286;2022-07-29T03:43:46;14.40;12.80;10.20
51320;PMS5003;38732;49.556;6.286;2022-07-29T03:46:17;14.40;14.40;11.00
51320;PMS5003;38732;49.556;6.286;2022-07-29T03:48:48;13.80;13.00;11.00
51320;PMS5003;38732;49.556;6.286;2022-07-29T03:51:20;14.40;13.00;9.80
51320;PMS5003;38732;49.556;6.286;2022-07-29T03:53:49;16.25;15.50;11.00
51320;PMS5003;38732;49.556;6.286;2022-07-29T03:56:17;16.50;15.75;11.75
51320;PMS5003;38732;49.556;6.286;2022-07-29T03:58:52;17.20;15.20;10.40
51320;PMS5003;38732;49.556;6.286;2022-07-29T04:01:21;15.40;15.40;10.00
51320;PMS5003;38732;49.556;6.286;2022-07-29T04:03:51;17.20;15.20;12.00
51320;PMS5003;38732;49.556;6.286;2022-07-29T04:06:19;10.75;10.75;8.00
51320;PMS5003;38732;49.556;6.286;2022-07-29T04:08:47;14.25;12.25;9.00
51320;PMS5003;38732;49.556;6.286;2022-07-29T04:11:16;15.00;14.50;10.50
51320;PMS5003;38732;49.556;6.286;2022-07-29T04:13:44;14.75;13.25;10.25
51320;PMS5003;38732;49.556;6.286;2022-07-29T04:16:12;12.50;11.75;8.75
51320;PMS5003;38732;49.556;6.286;2022-07-29T04:18:40;16.00;16.00;12.00
51320;PMS5003;38732;49.556;6.286;2022-07-29T04:21:09;15.75;12.75;9.75
51320;PMS5003;38732;49.556;6.286;2022-07-29T04:23:37;15.75;14.00;9.00
51320;PMS5003;38732;49.556;6.286;2022-07-29T04:26:05;14.00;14.00;9.25
51320;PMS5003;38732;49.556;6.286;2022-07-29T04:28:33;17.75;15.00;10.00
51320;PMS5003;38732;49.556;6.286;2022-07-29T04:31:02;13.50;12.25;10.00
51320;PMS5003;38732;49.556;6.286;2022-07-29T04:33:30;16.75;16.75;11.75
51320;PMS5003;38732;49.556;6.286;2022-07-29T04:35:58;15.75;14.50;11.00
51320;PMS5003;38732;49.556;6.286;2022-07-29T04:38:27;15.75;14.75;10.00
51320;PMS5003;38732;49.556;6.286;2022-07-29T04:40:55;14.00;14.00;10.75
51320;PMS5003;38732;49.556;6.286;2022-07-29T04:43:23;13.75;12.00;9.75
51320;PMS5003;38732;49.556;6.286;2022-07-29T04:45:51;16.75;15.75;11.00
51320;PMS5003;38732;49.556;6.286;2022-07-29T04:48:20;14.75;14.75;11.00
51320;PMS5003;38732;49.556;6.286;2022-07-29T04:50:48;12.75;11.75;9.00
51320;PMS5003;38732;49.556;6.286;2022-07-29T04:53:16;11.50;11.50;9.75
51320;PMS5003;38732;49.556;6.286;2022-07-29T04:55:44;19.25;14.00;10.50
51320;PMS5003;38732;49.556;6.286;2022-07-29T04:58:13;13.50;11.25;8.75
51320;PMS5003;38732;49.556;6.286;2022-07-29T05:00:41;15.75;15.75;10.50
51320;PMS5003;38732;49.556;6.286;2022-07-29T05:03:09;17.00;17.00;11.00
51320;PMS5003;38732;49.556;6.286;2022-07-29T05:05:37;18.00;15.00;10.50
51320;PMS5003;38732;49.556;6.286;2022-07-29T05:08:06;18.00;16.75;11.00
51320;PMS5003;38732;49.556;6.286;2022-07-29T05:10:34;14.00;12.25;9.50
51320;PMS5003;38732;49.556;6.286;2022-07-29T05:13:03;19.50;15.25;10.75
51320;PMS5003;38732;49.556;6.286;2022-07-29T05:15:34;23.40;18.00;12.00
51320;PMS5003;38732;49.556;6.286;2022-07-29T05:18:03;16.75;16.25;11.50
51320;PMS5003;38732;49.556;6.286;2022-07-29T05:20:32;16.25;14.75;11.75
51320;PMS5003;38732;49.556;6.286;2022-07-29T05:23:01;16.25;14.25;11.00
51320;PMS5003;38732;49.556;6.286;2022-07-29T05:25:29;17.25;15.00;11.25
51320;PMS5003;38732;49.556;6.286;2022-07-29T05:27:57;17.25;14.25;11.00
51320;PMS5003;38732;49.556;6.286;2022-07-29T05:30:26;16.25;15.75;12.00
51320;PMS5003;38732;49.556;6.286;2022-07-29T05:32:54;15.00;14.50;11.75
51320;PMS5003;38732;49.556;6.286;2022-07-29T05:35:22;14.75;14.75;9.75
51320;PMS5003;38732;49.556;6.286;2022-07-29T05:37:51;12.00;10.25;6.50
51320;PMS5003;38732;49.556;6.286;2022-07-29T05:40:19;18.00;15.50;11.50
51320;PMS5003;38732;49.556;6.286;2022-07-29T05:42:47;16.75;14.75;11.00
51320;PMS5003;38732;49.556;6.286;2022-07-29T05:45:15;12.75;12.75;10.00
51320;PMS5003;38732;49.556;6.286;2022-07-29T05:47:44;14.00;13.00;10.00
51320;PMS5003;38732;49.556;6.286;2022-07-29T05:50:12;15.00;12.00;8.50
51320;PMS5003;38732;49.556;6.286;2022-07-29T05:52:41;10.75;10.75;7.75
51320;PMS5003;38732;49.556;6.286;2022-07-29T05:55:09;13.50;13.50;10.00
51320;PMS5003;38732;49.556;6.286;2022-07-29T05:57:37;17.50;15.75;11.75
51320;PMS5003;38732;49.556;6.286;2022-07-29T06:00:05;15.75;15.75;11.00
51320;PMS5003;38732;49.556;6.286;2022-07-29T06:02:34;15.00;14.00;11.00
51320;PMS5003;38732;49.556;6.286;2022-07-29T06:05:02;14.25;14.25;11.00
51320;PMS5003;38732;49.556;6.286;2022-07-29T06:07:31;15.75;14.00;11.00
51320;PMS5003;38732;49.556;6.286;2022-07-29T06:09:59;12.50;12.50;9.25
51320;PMS5003;38732;49.556;6.286;2022-07-29T06:12:27;15.75;14.50;10.25
51320;PMS5003;38732;49.556;6.286;2022-07-29T06:14:56;18.25;17.50;10.75
51320;PMS5003;38732;49.556;6.286;2022-07-29T06:17:24;12.00;12.00;10.25
51320;PMS5003;38732;49.556;6.286;2022-07-29T06:19:52;12.50;12.50;9.00
51320;PMS5003;38732;49.556;6.286;2022-07-29T06:22:20;14.75;14.75;9.50
51320;PMS5003;38732;49.556;6.286;2022-07-29T06:24:49;15.00;13.00;10.00
51320;PMS5003;38732;49.556;6.286;2022-07-29T06:27:17;13.50;13.25;11.00
51320;PMS5003;38732;49.556;6.286;2022-07-29T06:29:45;13.75;12.25;10.00
51320;PMS5003;38732;49.556;6.286;2022-07-29T06:32:14;14.50;14.50;13.25
51320;PMS5003;38732;49.556;6.286;2022-07-29T06:34:42;14.75;14.50;11.25
51320;PMS5003;38732;49.556;6.286;2022-07-29T06:37:10;11.75;11.75;9.00
51320;PMS5003;38732;49.556;6.286;2022-07-29T06:39:38;14.50;14.50;10.00
51320;PMS5003;38732;49.556;6.286;2022-07-29T06:42:07;13.50;12.00;9.25
51320;PMS5003;38732;49.556;6.286;2022-07-29T06:44:35;12.25;11.50;8.25
51320;PMS5003;38732;49.556;6.286;2022-07-29T06:47:03;12.25;12.25;10.00
51320;PMS5003;38732;49.556;6.286;2022-07-29T06:49:31;8.50;8.50;7.00
51320;PMS5003;38732;49.556;6.286;2022-07-29T06:52:00;13.75;13.75;11.25
51320;PMS5003;38732;49.556;6.286;2022-07-29T06:54:28;11.75;11.50;9.75
51320;PMS5003;38732;49.556;6.286;2022-07-29T06:56:56;10.50;10.25;7.00
51320;PMS5003;38732;49.556;6.286;2022-07-29T06:59:24;10.00;10.00;9.00
51320;PMS5003;38732;49.556;6.286;2022-07-29T07:01:52;12.75;12.75;11.00
51320;PMS5003;38732;49.556;6.286;2022-07-29T07:04:21;13.75;13.75;10.75
51320;PMS5003;38732;49.556;6.286;2022-07-29T07:06:49;13.00;13.00;9.00
51320;PMS5003;38732;49.556;6.286;2022-07-29T07:09:17;11.50;11.50;8.50
51320;PMS5003;38732;49.556;6.286;2022-07-29T07:11:45;12.00;12.00;8.00
51320;PMS5003;38732;49.556;6.286;2022-07-29T07:14:14;14.75;14.75;10.25
51320;PMS5003;38732;49.556;6.286;2022-07-29T07:16:42;16.50;15.00;10.50
51320;PMS5003;38732;49.556;6.286;2022-07-29T07:19:10;12.50;12.50;11.00
51320;PMS5003;38732;49.556;6.286;2022-07-29T07:21:38;13.25;13.25;8.50
51320;PMS5003;38732;49.556;6.286;2022-07-29T07:24:07;15.00;15.00;12.00
51320;PMS5003;38732;49.556;6.286;2022-07-29T07:26:35;15.25;15.00;12.00
51320;PMS5003;38732;49.556;6.286;2022-07-29T07:29:03;14.00;14.00;10.75
51320;PMS5003;38732;49.556;6.286;2022-07-29T07:31:32;15.00;14.00;10.00
51320;PMS5003;38732;49.556;6.286;2022-07-29T07:34:00;12.00;12.00;9.00
51320;PMS5003;38732;49.556;6.286;2022-07-29T07:36:28;16.75;15.75;10.25
51320;PMS5003;38732;49.556;6.286;2022-07-29T07:38:57;16.75;13.75;10.00
51320;PMS5003;38732;49.556;6.286;2022-07-29T07:41:25;15.25;14.00;11.25
51320;PMS5003;38732;49.556;6.286;2022-07-29T07:43:53;16.00;15.00;11.25
51320;PMS5003;38732;49.556;6.286;2022-07-29T07:46:21;18.50;16.75;11.50
51320;PMS5003;38732;49.556;6.286;2022-07-29T07:48:50;12.25;12.25;11.00
51320;PMS5003;38732;49.556;6.286;2022-07-29T07:51:18;14.75;14.75;9.25
51320;PMS5003;38732;49.556;6.286;2022-07-29T07:53:46;15.25;14.00;11.50
51320;PMS5003;38732;49.556;6.286;2022-07-29T07:56:15;15.00;13.75;10.75
51320;PMS5003;38732;49.556;6.286;2022-07-29T07:58:43;15.50;13.50;10.00
51320;PMS5003;38732;49.556;6.286;2022-07-29T08:01:12;17.75;16.75;13.25
51320;PMS5003;38732;49.556;6.286;2022-07-29T08:03:40;18.50;15.00;12.00
51320;PMS5003;38732;49.556;6.286;2022-07-29T08:06:08;16.00;14.75;10.50
51320;PMS5003;38732;49.556;6.286;2022-07-29T08:08:36;16.25;15.75;13.00
51320;PMS5003;38732;49.556;6.286;2022-07-29T08:11:05;13.75;12.50;10.00
51320;PMS5003;38732;49.556;6.286;2022-07-29T08:13:33;19.25;17.50;12.00
51320;PMS5003;38732;49.556;6.286;2022-07-29T08:16:01;15.50;14.25;11.00
51320;PMS5003;38732;49.556;6.286;2022-07-29T08:18:30;14.25;13.25;11.00
51320;PMS5003;38732;49.556;6.286;2022-07-29T08:20:59;15.40;14.00;12.40
51320;PMS5003;38732;49.556;6.286;2022-07-29T08:23:27;12.00;12.00;9.00
51320;PMS5003;38732;49.556;6.286;2022-07-29T08:25:55;15.00;15.00;11.00
51320;PMS5003;38732;49.556;6.286;2022-07-29T08:28:23;16.25;16.25;12.00
51320;PMS5003;38732;49.556;6.286;2022-07-29T08:30:52;15.50;15.50;12.00
51320;PMS5003;38732;49.556;6.286;2022-07-29T08:33:20;16.50;15.50;11.50
51320;PMS5003;38732;49.556;6.286;2022-07-29T08:35:48;13.50;13.50;10.00
51320;PMS5003;38732;49.556;6.286;2022-07-29T08:38:16;16.00;14.00;12.00
51320;PMS5003;38732;49.556;6.286;2022-07-29T08:40:45;15.00;15.00;11.00
51320;PMS5003;38732;49.556;6.286;2022-07-29T08:43:14;15.00;15.00;12.25
51320;PMS5003;38732;49.556;6.286;2022-07-29T08:45:46;15.50;14.50;11.00
51320;PMS5003;38732;49.556;6.286;2022-07-29T08:48:19;16.00;15.00;10.40
51320;PMS5003;38732;49.556;6.286;2022-07-29T08:50:51;14.40;14.20;10.40
51320;PMS5003;38732;49.556;6.286;2022-07-29T08:53:22;15.60;13.80;10.00
51320;PMS5003;38732;49.556;6.286;2022-07-29T08:55:53;13.00;13.00;10.80
51320;PMS5003;38732;49.556;6.286;2022-07-29T08:58:22;16.40;16.40;12.40
51320;PMS5003;38732;49.556;6.286;2022-07-29T09:00:53;13.00;11.60;9.80
51320;PMS5003;38732;49.556;6.286;2022-07-29T09:03:23;13.20;13.20;9.20
51320;PMS5003;38732;49.556;6.286;2022-07-29T09:05:53;16.60;15.80;13.00
51320;PMS5003;38732;49.556;6.286;2022-07-29T09:08:21;16.75;14.75;11.50
51320;PMS5003;38732;49.556;6.286;2022-07-29T09:10:50;17.60;16.20;12.80
51320;PMS5003;38732;49.556;6.286;2022-07-29T09:13:19;15.00;14.50;11.50
51320;PMS5003;38732;49.556;6.286;2022-07-29T09:15:47;14.75;14.75;12.25
51320;PMS5003;38732;49.556;6.286;2022-07-29T09:18:34;19.00;13.75;12.00
51320;PMS5003;38732;49.556;6.286;2022-07-29T09:21:09;15.40;15.00;11.80
51320;PMS5003;38732;49.556;6.286;2022-07-29T09:23:39;18.40;16.60;13.00
51320;PMS5003;38732;49.556;6.286;2022-07-29T09:26:07;15.75;15.00;12.25
51320;PMS5003;38732;49.556;6.286;2022-07-29T09:28:35;15.75;14.50;11.00
51320;PMS5003;38732;49.556;6.286;2022-07-29T09:31:09;14.60;14.60;12.20
51320;PMS5003;38732;49.556;6.286;2022-07-29T09:33:38;17.00;17.00;13.25
51320;PMS5003;38732;49.556;6.286;2022-07-29T09:36:07;17.75;17.25;13.00
51320;PMS5003;38732;49.556;6.286;2022-07-29T09:38:37;17.60;17.60;12.60
51320;PMS5003;38732;49.556;6.286;2022-07-29T09:41:05;14.75;14.25;12.00
51320;PMS5003;38732;49.556;6.286;2022-07-29T09:43:33;16.00;14.75;11.50
51320;PMS5003;38732;49.556;6.286;2022-07-29T09:46:11;14.25;13.75;10.25
51320;PMS5003;38732;49.556;6.286;2022-07-29T09:48:40;15.80;15.60;12.00
51320;PMS5003;38732;49.556;6.286;2022-07-29T09:51:27;16.25;16.25;12.00
51320;PMS5003;38732;49.556;6.286;2022-07-29T09:53:56;16.20;14.60;11.60
51320;PMS5003;38732;49.556;6.286;2022-07-29T09:56:39;16.25;15.00;12.25
51320;PMS5003;38732;49.556;6.286;2022-07-29T09:59:09;17.80;15.20;12.20
51320;PMS5003;38732;49.556;6.286;2022-07-29T10:01:37;18.50;17.00;13.50
51320;PMS5003;38732;49.556;6.286;2022-07-29T10:04:05;15.75;15.25;10.75
51320;PMS5003;38732;49.556;6.286;2022-07-29T10:06:34;14.50;13.50;11.50
51320;PMS5003;38732;49.556;6.286;2022-07-29T10:09:08;12.50;12.25;10.25
51320;PMS5003;38732;49.556;6.286;2022-07-29T10:11:38;16.20;16.20;12.80
51320;PMS5003;38732;49.556;6.286;2022-07-29T10:14:06;15.25;15.25;13.00
51320;PMS5003;38732;49.556;6.286;2022-07-29T10:16:34;17.25;16.50;12.50
51320;PMS5003;38732;49.556;6.286;2022-07-29T10:19:04;15.00;15.00;11.40
51320;PMS5003;38732;49.556;6.286;2022-07-29T10:21:32;11.75;11.75;8.75
51320;PMS5003;38732;49.556;6.286;2022-07-29T10:24:01;15.00;13.50;9.75
51320;PMS5003;38732;49.556;6.286;2022-07-29T10:26:29;13.25;13.25;10.00
51320;PMS5003;38732;49.556;6.286;2022-07-29T10:28:58;15.75;13.50;9.50
51320;PMS5003;38732;49.556;6.286;2022-07-29T10:31:34;15.00;14.75;11.50
51320;PMS5003;38732;49.556;6.286;2022-07-29T10:40:17;13.80;12.40;9.40
51320;PMS5003;38732;49.556;6.286;2022-07-29T10:42:54;12.20;12.20;10.00
51320;PMS5003;38732;49.556;6.286;2022-07-29T10:45:27;11.80;9.80;8.00
51320;PMS5003;38732;49.556;6.286;2022-07-29T10:48:04;11.40;11.00;9.00
51320;PMS5003;38732;49.556;6.286;2022-07-29T10:53:20;8.00;8.00;5.60
51320;PMS5003;38732;49.556;6.286;2022-07-29T10:55:49;12.60;12.60;10.00
51320;PMS5003;38732;49.556;6.286;2022-07-29T10:58:20;12.20;12.20;10.20
51320;PMS5003;38732;49.556;6.286;2022-07-29T11:00:51;14.60;14.60;11.00
51320;PMS5003;38732;49.556;6.286;2022-07-29T11:06:08;14.60;14.60;11.40
51320;PMS5003;38732;49.556;6.286;2022-07-29T11:08:36;13.75;13.75;9.75
51320;PMS5003;38732;49.556;6.286;2022-07-29T11:13:49;11.00;11.00;8.80
51320;PMS5003;38732;49.556;6.286;2022-07-29T11:16:19;14.40;14.00;10.00
51320;PMS5003;38732;49.556;6.286;2022-07-29T11:21:41;10.40;10.00;8.40
51320;PMS5003;38732;49.556;6.286;2022-07-29T11:24:11;11.60;10.60;8.00
51320;PMS5003;38732;49.556;6.286;2022-07-29T11:27:05;10.20;10.00;8.20
51320;PMS5003;38732;49.556;6.286;2022-07-29T11:29:34;13.40;12.00;9.20
51320;PMS5003;38732;49.556;6.286;2022-07-29T11:32:10;11.80;11.00;8.80
51320;PMS5003;38732;49.556;6.286;2022-07-29T11:34:40;11.60;11.60;9.60
51320;PMS5003;38732;49.556;6.286;2022-07-29T11:39:38;11.00;11.00;9.00
51320;PMS5003;38732;49.556;6.286;2022-07-29T11:44:58;13.20;11.80;9.00
51320;PMS5003;38732;49.556;6.286;2022-07-29T11:47:57;10.00;9.00;6.80
51320;PMS5003;38732;49.556;6.286;2022-07-29T11:50:29;10.00;10.00;8.00
51320;PMS5003;38732;49.556;6.286;2022-07-29T11:52:58;13.00;13.00;9.40
51320;PMS5003;38732;49.556;6.286;2022-07-29T11:55:27;13.20;13.20;11.00
51320;PMS5003;38732;49.556;6.286;2022-07-29T11:57:56;12.00;11.50;9.00
51320;PMS5003;38732;49.556;6.286;2022-07-29T12:03:03;9.60;9.60;7.60
51320;PMS5003;38732;49.556;6.286;2022-07-29T12:05:37;8.80;8.00;6.00
51320;PMS5003;38732;49.556;6.286;2022-07-29T12:08:14;11.80;10.80;9.40
51320;PMS5003;38732;49.556;6.286;2022-07-29T12:10:45;9.60;9.60;7.80
51320;PMS5003;38732;49.556;6.286;2022-07-29T12:13:15;11.60;11.00;8.60
51320;PMS5003;38732;49.556;6.286;2022-07-29T12:15:55;9.00;9.00;7.60
51320;PMS5003;38732;49.556;6.286;2022-07-29T12:18:24;13.60;12.40;9.80
51320;PMS5003;38732;49.556;6.286;2022-07-29T12:20:56;12.00;10.75;8.50
51320;PMS5003;38732;49.556;6.286;2022-07-29T12:23:25;10.00;10.00;8.00
51320;PMS5003;38732;49.556;6.286;2022-07-29T12:25:53;10.50;10.50;8.00
51320;PMS5003;38732;49.556;6.286;2022-07-29T12:28:22;10.75;10.75;8.25
51320;PMS5003;38732;49.556;6.286;2022-07-29T12:30:51;10.00;10.00;8.25
51320;PMS5003;38732;49.556;6.286;2022-07-29T12:33:23;13.25;12.25;9.50
51320;PMS5003;38732;49.556;6.286;2022-07-29T12:35:54;12.40;12.40;10.00
51320;PMS5003;38732;49.556;6.286;2022-07-29T12:38:25;9.40;9.00;7.40
51320;PMS5003;38732;49.556;6.286;2022-07-29T12:40:53;10.25;10.25;7.00
51320;PMS5003;38732;49.556;6.286;2022-07-29T12:43:23;11.50;11.50;9.00
51320;PMS5003;38732;49.556;6.286;2022-07-29T12:45:53;9.00;9.00;7.60
51320;PMS5003;38732;49.556;6.286;2022-07-29T12:48:33;11.20;10.80;8.00
51320;PMS5003;38732;49.556;6.286;2022-07-29T12:51:03;10.60;10.60;8.00
51320;PMS5003;38732;49.556;6.286;2022-07-29T12:53:32;9.60;9.60;8.20
51320;PMS5003;38732;49.556;6.286;2022-07-29T12:56:01;9.75;9.50;7.50
51320;PMS5003;38732;49.556;6.286;2022-07-29T12:58:31;11.40;11.40;9.00
51320;PMS5003;38732;49.556;6.286;2022-07-29T13:01:09;9.00;9.00;7.40
51320;PMS5003;38732;49.556;6.286;2022-07-29T13:03:45;9.20;9.20;7.60
51320;PMS5003;38732;49.556;6.286;2022-07-29T13:09:09;9.40;9.40;7.20
51320;PMS5003;38732;49.556;6.286;2022-07-29T13:11:51;9.40;9.40;7.60
51320;PMS5003;38732;49.556;6.286;2022-07-29T13:14:31;9.20;9.20;8.00
51320;PMS5003;38732;49.556;6.286;2022-07-29T13:17:19;9.80;9.80;8.00
51320;PMS5003;38732;49.556;6.286;2022-07-29T13:19:51;8.80;8.80;6.80
51320;PMS5003;38732;49.556;6.286;2022-07-29T13:22:23;6.40;6.40;4.60
51320;PMS5003;38732;49.556;6.286;2022-07-29T13:24:53;12.00;11.20;9.80
51320;PMS5003;38732;49.556;6.286;2022-07-29T13:27:30;9.60;8.60;6.60
51320;PMS5003;38732;49.556;6.286;2022-07-29T13:30:00;10.80;10.00;8.20
51320;PMS5003;38732;49.556;6.286;2022-07-29T13:32:30;4.60;3.80;2.80
51320;PMS5003;38732;49.556;6.286;2022-07-29T13:35:04;9.20;9.20;7.40
51320;PMS5003;38732;49.556;6.286;2022-07-29T13:37:34;8.60;8.40;7.40
51320;PMS5003;38732;49.556;6.286;2022-07-29T13:40:04;11.00;10.00;9.00
51320;PMS5003;38732;49.556;6.286;2022-07-29T13:42:33;12.60;9.80;7.20
51320;PMS5003;38732;49.556;6.286;2022-07-29T13:45:01;8.00;8.00;6.00
51320;PMS5003;38732;49.556;6.286;2022-07-29T13:47:30;11.40;11.40;9.60
51320;PMS5003;38732;49.556;6.286;2022-07-29T13:49:59;10.50;10.50;8.00
51320;PMS5003;38732;49.556;6.286;2022-07-29T13:52:28;9.80;9.80;7.80
51320;PMS5003;38732;49.556;6.286;2022-07-29T13:54:57;9.50;9.00;7.00
51320;PMS5003;38732;49.556;6.286;2022-07-29T13:57:25;13.00;13.00;11.25
51320;PMS5003;38732;49.556;6.286;2022-07-29T13:59:53;12.75;11.75;9.00
51320;PMS5003;38732;49.556;6.286;2022-07-29T14:02:22;11.00;11.00;9.00
51320;PMS5003;38732;49.556;6.286;2022-07-29T14:04:50;9.50;9.50;7.25
51320;PMS5003;38732;49.556;6.286;2022-07-29T14:07:19;11.00;10.75;9.00
51320;PMS5003;38732;49.556;6.286;2022-07-29T14:09:47;10.50;10.50;8.25
51320;PMS5003;38732;49.556;6.286;2022-07-29T14:12:15;12.25;12.00;9.00
51320;PMS5003;38732;49.556;6.286;2022-07-29T14:14:44;12.00;10.50;8.00
51320;PMS5003;38732;49.556;6.286;2022-07-29T14:17:12;8.00;8.00;7.00
51320;PMS5003;38732;49.556;6.286;2022-07-29T14:19:40;8.75;8.75;6.75
51320;PMS5003;38732;49.556;6.286;2022-07-29T14:22:08;8.25;8.25;6.25
51320;PMS5003;38732;49.556;6.286;2022-07-29T14:24:37;12.25;11.00;9.25
51320;PMS5003;38732;49.556;6.286;2022-07-29T14:27:06;10.00;8.50;5.75
51320;PMS5003;38732;49.556;6.286;2022-07-29T14:29:36;9.00;9.00;7.00
51320;PMS5003;38732;49.556;6.286;2022-07-29T14:32:05;10.20;10.20;7.00
51320;PMS5003;38732;49.556;6.286;2022-07-29T14:34:34;10.00;9.00;7.60
51320;PMS5003;38732;49.556;6.286;2022-07-29T14:37:03;11.00;11.00;9.20
51320;PMS5003;38732;49.556;6.286;2022-07-29T14:39:33;11.60;8.60;7.40
51320;PMS5003;38732;49.556;6.286;2022-07-29T14:42:02;12.20;11.40;8.20
51320;PMS5003;38732;49.556;6.286;2022-07-29T14:44:30;9.50;9.50;7.75
51320;PMS5003;38732;49.556;6.286;2022-07-29T14:46:59;10.25;10.00;8.00
51320;PMS5003;38732;49.556;6.286;2022-07-29T14:49:27;11.00;11.00;9.00
51320;PMS5003;38732;49.556;6.286;2022-07-29T14:51:56;10.50;10.50;7.75
51320;PMS5003;38732;49.556;6.286;2022-07-29T14:54:24;10.75;10.75;9.00